Lingle, Wyoming
Current Conditions -  °F | °C
As of 8:53 AM on Thursday 30 Oct 2014 (Local Time) from KTOR Reporting Station
Clear Clear  
Wind Chill: 35°   Ceiling: Unl
Heat Index: 35°   Visibility: 10mi
Dew Point: 25°   Wind: 3mph
Humidity: 67%   Direction: 240°WSW
Pressure: 30.34"   Gusts: NA
Location:  42.14°N, 104.35°W
Report Text: KTOR 301453Z AUTO 24003KT 10SM CLR 02/M04 A3034 RMK AO2 SLP284 T00171039 53015
Loading
Personal Weather Stations






























Interactive Weather Map
Tropical Storm Tracking
New forecast layout! Learn more

10-Day Weather Forecast

Advertisements
Track Severe Weather on mobile